Observations for Trim Market St
| Time | AQI | Temp °C | Hum % | Pres Pa | CO μg/m³ | H₂S μg/m³ | NO μg/m³ | NO₂ μg/m³ | O₃ μg/m³ | SO₂ μg/m³ | PM1 μg/m³ | PM2.5 μg/m³ | PM10 μg/m³ |
|---|---|---|---|---|---|---|---|---|---|---|---|---|---|
| Monday 24 August 2026 | |||||||||||||
| 17:00 | 3 | 33.1 | 22 | 66,311 | 0 | 0 | 0.47 | 20.23 | 110.15 | 0 | 0.71 | 4.74 | 5.22 |
| 16:59 | 3 | 33.3 | 22 | 66,337 | 0 | 0.94 | 0.46 | 24.54 | 126.99 | 0 | 2.14 | 6.41 | 6.61 |
| 16:58 | 3 | 33.4 | 22 | 66,370 | 0 | 0 | 0.47 | 27.08 | 102 | 0 | 1.43 | 5.86 | 6.45 |
| 16:57 | 3 | 33.5 | 22 | 66,384 | 0 | 2.32 | 0.52 | 29.92 | 121.3 | 0 | 2.14 | 5.87 | 7.52 |
| 16:56 | 3 | 33.7 | 22 | 66,398 | 0 | 0 | 0.48 | 26.45 | 117.26 | 0 | 2.14 | 5.88 | 6.46 |
| 16:54 | 3 | 34 | 22 | 66,392 | 0 | 0 | 0.67 | 19.62 | 104.27 | 0 | 1.43 | 4.76 | 5.23 |
| 16:53 | 3 | 34.1 | 22 | 66,404 | 0 | 0 | 0.64 | 25.56 | 108.7 | 0 | 2.14 | 6.41 | 7.06 |
| 16:52 | 3 | 34.2 | 22 | 66,416 | 0 | 0 | 0.65 | 25.3 | 102.6 | 0 | 0.71 | 4.74 | 5.7 |
| 16:49 | 3 | 34.5 | 22 | 66,474 | 0 | 6.78 | 0.53 | 34.63 | 115.58 | 0 | 1.43 | 4.75 | 5.22 |
| 16:39 | 3 | 35.2 | 22 | 66,463 | 0 | 0 | 0.67 | 36.93 | 113.46 | 0 | 1.43 | 6.97 | 7.67 |
| 16:38 | 3 | 35.3 | 22 | 66,483 | 0 | 0 | 0.59 | 31.29 | 103.98 | 0 | 1.43 | 4.75 | 5.23 |
| 16:37 | 3 | 35.3 | 22 | 66,507 | 0 | 0.9 | 0.54 | 31.87 | 110.86 | 0 | 0.71 | 5.85 | 6.43 |
| 16:36 | 3 | 35.3 | 23 | 66,507 | 0 | 3.6 | 0.55 | 36.73 | 114.79 | 0 | 2.85 | 6.95 | 7.64 |
| 16:35 | 3 | 35.3 | 23 | 66,507 | 0 | 1.71 | 0.55 | 37.64 | 106.71 | 0 | 1.43 | 5.29 | 5.82 |
| 16:34 | 3 | 35.3 | 23 | 66,480 | 0 | 6.97 | 0.48 | 43.59 | 125.29 | 0 | 2.85 | 6.95 | 7.64 |
| 16:33 | 3 | 35.3 | 22 | 66,497 | 0 | 10.03 | 0.48 | 41.96 | 123.46 | 0 | 2.14 | 5.85 | 6.43 |
| 16:32 | 3 | 35.3 | 22 | 66,491 | 0 | 3.03 | 0.61 | 36.75 | 123.14 | 0 | 0.71 | 5.3 | 5.83 |
| 16:30 | 3 | 35.3 | 22 | 66,501 | 0 | 5.57 | 0.67 | 39.21 | 125.75 | 0 | 2.14 | 6.98 | 7.68 |
| 16:28 | 3 | 35.3 | 22 | 66,531 | 0 | 2.49 | 0.83 | 36.95 | 128.52 | 0 | 1.43 | 5.88 | 6.46 |
| 16:23 | 3 | 35.4 | 22 | 66,513 | 0 | 4.4 | 0.67 | 42.49 | 123.06 | 0 | 2.14 | 5.87 | 6.46 |